Time;durP1;ratioP1;P1;durP2;ratioP2;P2;SDS_P1;SDS_P2;PMS_P1;PMS_P2;Temp;Humidity;BMP_temperature;BMP_pressure;BME280_temperature;BME280_humidity;BME280_pressure;Samples;Min_cycle;Max_cycle;Signal;HPM_P1;HPM_P2
2024/04/24 00:00:32;;;;;;;4.67;3.50;;;22.80;51.20;;;;;;5416146;26;20434;-69
2024/04/24 00:03:02;;;;;;;5.37;3.73;;;22.80;51.20;;;;;;5415674;26;20220;-68
2024/04/24 00:05:30;;;;;;;6.53;3.80;;;22.80;51.20;;;;;;5415432;26;20224;-67
2024/04/24 00:07:56;;;;;;;3.90;3.30;;;22.80;51.20;;;;;;5415162;26;20470;-69
2024/04/24 00:10:22;;;;;;;5.37;3.80;;;22.80;51.20;;;;;;5415247;26;20502;-69
2024/04/24 00:12:47;;;;;;;6.27;3.60;;;22.80;51.20;;;;;;5415387;26;20302;-69
2024/04/24 00:15:13;;;;;;;4.67;3.20;;;22.80;51.20;;;;;;5415221;26;20228;-67
2024/04/24 00:17:39;;;;;;;4.40;3.50;;;22.80;51.20;;;;;;5415330;26;20228;-68
2024/04/24 00:20:05;;;;;;;5.60;3.60;;;22.80;51.30;;;;;;5414924;26;20408;-68
2024/04/24 00:22:30;;;;;;;5.87;3.80;;;22.80;51.30;;;;;;5414970;26;20220;-69
2024/04/24 00:24:56;;;;;;;4.87;3.50;;;22.80;51.30;;;;;;5414977;26;20446;-67
2024/04/24 00:27:22;;;;;;;3.90;3.00;;;22.80;51.30;;;;;;5415229;26;20282;-69
2024/04/24 00:29:47;;;;;;;6.03;3.17;;;22.80;51.30;;;;;;5414955;26;20228;-68
2024/04/24 00:32:13;;;;;;;5.03;3.30;;;22.80;51.30;;;;;;5415158;26;20287;-68
2024/04/24 00:34:39;;;;;;;6.13;3.60;;;22.80;51.30;;;;;;5414994;26;20569;-68
2024/04/24 00:37:04;;;;;;;5.40;3.40;;;22.80;51.30;;;;;;5414630;26;20703;-69
2024/04/24 00:39:30;;;;;;;4.47;3.17;;;22.80;51.30;;;;;;5414953;26;20258;-68
2024/04/24 00:41:55;;;;;;;4.30;3.30;;;22.80;51.30;;;;;;5414964;26;20899;-69
2024/04/24 00:44:21;;;;;;;4.53;3.20;;;22.80;51.30;;;;;;5414627;26;20267;-70
2024/04/24 00:46:46;;;;;;;5.10;3.40;;;22.80;51.30;;;;;;5414820;26;20623;-69
2024/04/24 00:49:13;;;;;;;5.00;2.90;;;22.80;51.90;;;;;;5414739;26;20236;-68
2024/04/24 00:51:40;;;;;;;4.30;3.10;;;22.80;50.80;;;;;;5383977;26;20290;-68
2024/04/24 00:54:07;;;;;;;4.73;3.03;;;22.80;51.30;;;;;;5414708;26;20564;-68
2024/04/24 00:56:33;;;;;;;5.17;3.40;;;22.80;51.30;;;;;;5414566;26;20525;-68
2024/04/24 00:58:59;;;;;;;4.17;2.90;;;22.80;51.30;;;;;;5414647;26;20454;-68
2024/04/24 01:01:25;;;;;;;4.60;3.10;;;22.80;51.30;;;;;;5417696;26;20276;-69
2024/04/24 01:03:50;;;;;;;5.03;3.20;;;22.80;51.20;;;;;;5417875;26;20498;-68
2024/04/24 01:06:16;;;;;;;3.90;2.70;;;22.80;51.30;;;;;;5417918;26;20329;-68
2024/04/24 01:08:42;;;;;;;4.30;3.13;;;22.80;51.30;;;;;;5418087;26;20583;-69
2024/04/24 01:11:07;;;;;;;3.37;3.07;;;22.80;51.20;;;;;;5417766;26;20757;-68
2024/04/24 01:13:33;;;;;;;7.60;3.60;;;22.80;51.30;;;;;;5417878;26;20224;-69
2024/04/24 01:16:18;;;;;;;3.40;2.97;;;22.80;51.20;;;;;;5418069;26;20715;-67
2024/04/24 01:19:01;;;;;;;4.20;3.37;;;22.80;51.20;;;;;;5417777;26;20244;-67
2024/04/24 01:21:38;;;;;;;6.47;3.70;;;22.80;51.20;;;;;;5417756;26;20514;-69
2024/04/24 01:24:25;;;;;;;4.53;2.90;;;22.80;51.20;;;;;;5417864;26;20527;-68
2024/04/24 01:26:51;;;;;;;4.40;3.23;;;22.80;51.20;;;;;;5417825;26;20494;-68
2024/04/24 01:29:16;;;;;;;4.80;3.10;;;22.80;51.30;;;;;;5417654;26;20462;-69
2024/04/24 01:31:42;;;;;;;3.77;3.30;;;22.80;51.30;;;;;;5417882;26;20449;-69
2024/04/24 01:34:08;;;;;;;5.13;3.13;;;22.80;51.80;;;;;;5417529;26;20258;-68
2024/04/24 01:36:34;;;;;;;4.03;3.50;;;22.80;51.30;;;;;;5417858;26;20762;-68
2024/04/24 01:39:00;;;;;;;5.03;3.40;;;22.80;51.30;;;;;;5417916;26;20987;-68
2024/04/24 01:41:26;;;;;;;3.27;2.83;;;22.80;51.30;;;;;;5417729;26;20515;-68
2024/04/24 01:43:51;;;;;;;3.90;2.60;;;22.80;51.20;;;;;;5417752;26;21144;-68
2024/04/24 01:46:17;;;;;;;4.63;2.73;;;22.80;51.20;;;;;;5417844;26;20267;-68
2024/04/24 01:48:42;;;;;;;4.37;3.03;;;22.80;51.20;;;;;;5385970;26;20240;-68
2024/04/24 01:51:08;;;;;;;3.70;2.60;;;22.80;51.20;;;;;;5417593;26;20236;-68
2024/04/24 01:53:34;;;;;;;4.87;3.20;;;22.80;51.20;;;;;;5417135;26;20271;-69
2024/04/24 01:55:59;;;;;;;4.23;2.60;;;22.80;51.20;;;;;;5417402;26;20228;-69
2024/04/24 01:58:25;;;;;;;4.07;2.87;;;22.80;51.20;;;;;;5417377;26;20262;-68
2024/04/24 02:00:50;;;;;;;3.10;2.33;;;22.80;51.30;;;;;;5417285;26;20325;-69
2024/04/24 02:03:16;;;;;;;2.83;2.23;;;22.80;51.20;;;;;;5417358;26;20220;-69
2024/04/24 02:05:41;;;;;;;4.43;2.87;;;22.80;51.30;;;;;;5417683;26;20592;-69
2024/04/24 02:08:07;;;;;;;4.27;3.10;;;22.80;51.30;;;;;;5417488;26;20236;-68
2024/04/24 02:10:33;;;;;;;3.87;2.60;;;22.80;51.30;;;;;;5416709;26;20318;-68
2024/04/24 02:12:58;;;;;;;4.33;2.87;;;22.80;51.20;;;;;;5416028;26;20263;-69
2024/04/24 02:15:24;;;;;;;3.83;2.97;;;22.80;51.20;;;;;;5417407;26;20220;-67
2024/04/24 02:17:49;;;;;;;4.50;3.50;;;22.80;51.20;;;;;;5385654;26;20703;-69
2024/04/24 02:20:15;;;;;;;4.30;3.43;;;22.80;51.30;;;;;;5416780;26;20270;-69
2024/04/24 02:22:42;;;;;;;3.87;3.13;;;22.80;51.30;;;;;;5416954;26;20332;-68
2024/04/24 02:27:52;;;;;;;3.50;2.60;;;22.80;51.20;;;;;;5416830;26;20516;-69
2024/04/24 02:30:18;;;;;;;5.03;3.07;;;22.70;51.20;;;;;;5416698;26;20446;-69
2024/04/24 02:32:44;;;;;;;3.87;2.67;;;22.80;51.30;;;;;;5385125;26;20586;-69
2024/04/24 02:35:10;;;;;;;3.70;2.57;;;22.80;51.30;;;;;;5416674;26;20794;-68
2024/04/24 02:37:36;;;;;;;5.20;3.30;;;22.80;51.30;;;;;;5416941;26;20497;-69
2024/04/24 02:40:01;;;;;;;3.77;3.03;;;22.80;51.30;;;;;;5416345;26;20216;-68
2024/04/24 02:42:27;;;;;;;4.23;3.03;;;22.80;51.30;;;;;;5416548;26;20250;-68
2024/04/24 02:44:52;;;;;;;3.73;2.10;;;22.80;51.30;;;;;;5416687;26;20295;-68
2024/04/24 02:47:18;;;;;;;4.57;3.37;;;22.80;51.30;;;;;;5416622;26;20272;-69
2024/04/24 02:49:43;;;;;;;2.70;2.50;;;22.70;51.20;;;;;;5416403;26;20232;-69
2024/04/24 02:52:09;;;;;;;4.57;2.90;;;22.80;51.30;;;;;;5416523;26;20224;-68
2024/04/24 02:54:34;;;;;;;5.13;3.63;;;22.80;51.30;;;;;;5416172;26;20220;-68
2024/04/24 02:57:00;;;;;;;4.10;2.90;;;22.80;51.30;;;;;;5416565;26;20228;-69
2024/04/24 02:59:26;;;;;;;4.00;2.60;;;22.80;51.30;;;;;;5416152;26;20306;-69
2024/04/24 03:01:51;;;;;;;4.13;2.90;;;22.80;51.30;;;;;;5416357;26;20293;-68
2024/04/24 03:04:17;;;;;;;3.53;2.60;;;22.80;51.30;;;;;;5384814;26;20240;-68
2024/04/24 03:06:43;;;;;;;4.50;3.20;;;22.80;51.30;;;;;;5416148;26;20334;-69
2024/04/24 03:09:10;;;;;;;4.10;2.90;;;22.80;51.20;;;;;;5416338;26;20668;-68
2024/04/24 03:11:38;;;;;;;4.23;2.70;;;22.80;51.30;;;;;;5416067;26;20906;-69
2024/04/24 03:14:03;;;;;;;3.63;2.90;;;22.80;51.20;;;;;;5416114;26;20446;-68
2024/04/24 03:16:32;;;;;;;3.13;2.73;;;22.80;51.30;;;;;;5416086;26;21016;-69
2024/04/24 03:18:58;;;;;;;3.17;2.87;;;22.80;51.20;;;;;;5416032;26;20271;-69
2024/04/24 03:21:24;;;;;;;5.30;2.77;;;22.80;51.20;;;;;;5415944;26;20450;-68
2024/04/24 03:23:50;;;;;;;3.73;2.87;;;22.80;51.30;;;;;;5415645;26;20749;-68
2024/04/24 03:26:16;;;;;;;3.83;2.60;;;22.80;51.20;;;;;;5415796;26;20454;-69
2024/04/24 03:28:41;;;;;;;3.60;3.00;;;22.80;51.20;;;;;;5415812;26;20245;-68
2024/04/24 03:31:07;;;;;;;2.90;2.20;;;22.80;51.20;;;;;;5415764;26;20284;-69
2024/04/24 03:33:33;;;;;;;3.13;2.20;;;22.80;51.20;;;;;;5415908;26;20275;-68
2024/04/24 03:35:58;;;;;;;4.27;2.60;;;22.80;51.20;;;;;;5415553;26;20228;-69
2024/04/24 03:38:24;;;;;;;3.50;2.60;;;22.80;51.20;;;;;;5415928;26;20240;-68
2024/04/24 03:40:49;;;;;;;2.73;2.10;;;22.80;51.20;;;;;;5416305;26;20232;-67
2024/04/24 03:43:16;;;;;;;3.67;2.87;;;22.80;51.20;;;;;;5384707;26;20224;-69
2024/04/24 03:45:42;;;;;;;4.87;2.90;;;22.80;51.30;;;;;;5416164;26;20620;-67
2024/04/24 03:48:07;;;;;;;3.80;2.60;;;22.80;51.30;;;;;;5415674;26;20462;-69
2024/04/24 03:50:33;;;;;;;3.20;2.67;;;22.80;51.20;;;;;;5415625;26;20622;-69
2024/04/24 03:52:58;;;;;;;3.60;2.33;;;22.80;51.20;;;;;;5415988;26;20275;-68
2024/04/24 03:55:24;;;;;;;3.07;2.53;;;22.80;51.30;;;;;;5415237;26;20220;-67
2024/04/24 03:57:50;;;;;;;3.00;2.30;;;22.80;51.30;;;;;;5415755;26;20271;-69
2024/04/24 04:00:15;;;;;;;3.63;2.73;;;22.80;51.90;;;;;;5415680;26;20232;-68
2024/04/24 04:02:42;;;;;;;3.90;2.33;;;22.80;51.30;;;;;;5415687;26;20266;-69
2024/04/24 04:05:07;;;;;;;2.70;2.30;;;22.80;51.30;;;;;;5415743;26;20279;-69
2024/04/24 04:07:33;;;;;;;4.07;2.77;;;22.80;51.30;;;;;;5415556;26;20827;-68
2024/04/24 04:09:58;;;;;;;3.43;2.17;;;22.80;51.30;;;;;;5415691;26;20217;-67
2024/04/24 04:12:24;;;;;;;2.90;2.60;;;22.80;51.30;;;;;;5415643;26;20715;-68
2024/04/24 04:14:49;;;;;;;3.37;2.47;;;22.80;51.30;;;;;;5415500;26;20232;-68
2024/04/24 04:17:15;;;;;;;4.00;3.20;;;22.80;51.30;;;;;;5415360;26;20806;-68
2024/04/24 04:19:40;;;;;;;3.67;2.60;;;22.80;51.30;;;;;;5414950;26;20288;-69
2024/04/24 04:22:06;;;;;;;2.90;2.60;;;22.80;51.30;;;;;;5415076;26;20820;-69
2024/04/24 04:24:32;;;;;;;3.33;2.70;;;22.80;51.30;;;;;;5415153;26;20507;-66
2024/04/24 04:26:57;;;;;;;3.50;2.37;;;22.80;51.20;;;;;;5415084;26;20224;-68
2024/04/24 04:29:23;;;;;;;3.20;2.40;;;22.80;51.20;;;;;;5415666;26;20232;-67
2024/04/24 04:31:49;;;;;;;3.30;2.40;;;22.80;51.20;;;;;;5415225;26;20672;-68
2024/04/24 04:34:14;;;;;;;2.57;2.00;;;22.80;51.20;;;;;;5413681;26;20502;-68
2024/04/24 04:36:40;;;;;;;3.90;2.90;;;22.80;51.20;;;;;;5414933;26;20263;-68
2024/04/24 04:39:06;;;;;;;3.40;2.70;;;22.80;51.20;;;;;;5415036;26;20231;-68
2024/04/24 04:41:31;;;;;;;3.50;2.50;;;22.80;51.20;;;;;;5383313;26;20232;-69
2024/04/24 04:43:57;;;;;;;2.60;1.93;;;22.80;51.20;;;;;;5414699;26;20619;-68
2024/04/24 04:46:23;;;;;;;2.53;2.30;;;22.80;51.20;;;;;;5415279;26;20313;-69
2024/04/24 04:48:48;;;;;;;2.80;2.33;;;22.80;51.20;;;;;;5414135;26;20291;-68
2024/04/24 04:51:14;;;;;;;3.07;2.43;;;22.80;51.20;;;;;;5414962;26;20224;-69
2024/04/24 04:53:40;;;;;;;3.10;2.37;;;22.80;51.20;;;;;;5415051;26;20217;-69
2024/04/24 04:56:06;;;;;;;3.60;2.90;;;22.80;51.20;;;;;;5414819;26;20699;-68
2024/04/24 04:58:31;;;;;;;3.40;2.40;;;22.80;51.20;;;;;;5415041;26;20316;-68
2024/04/24 05:00:57;;;;;;;2.77;2.40;;;22.80;51.20;;;;;;5414890;26;20980;-69
2024/04/24 05:03:23;;;;;;;4.13;2.53;;;22.80;51.20;;;;;;5415423;26;20220;-68
2024/04/24 05:05:48;;;;;;;3.43;2.70;;;22.80;51.20;;;;;;5414885;26;20325;-69
2024/04/24 05:08:14;;;;;;;2.97;2.37;;;22.80;51.20;;;;;;5413202;26;20232;-67
2024/04/24 05:10:40;;;;;;;3.30;2.23;;;22.80;51.50;;;;;;5381990;26;20557;-68
2024/04/24 05:13:12;;;;;;;4.00;2.33;;;22.80;51.20;;;;;;5412961;26;20320;-68
2024/04/24 05:15:38;;;;;;;2.47;2.17;;;22.80;51.20;;;;;;5412824;26;20221;-68
2024/04/24 05:18:07;;;;;;;3.77;2.30;;;22.80;51.20;;;;;;5412893;26;20884;-69
2024/04/24 05:20:33;;;;;;;3.00;2.57;;;22.80;51.20;;;;;;5412883;26;20579;-68
2024/04/24 05:23:00;;;;;;;4.00;2.63;;;22.80;51.20;;;;;;5412827;26;20504;-68
2024/04/24 05:25:28;;;;;;;2.50;1.97;;;22.80;51.20;;;;;;5412675;26;20582;-66
2024/04/24 05:30:38;;;;;;;2.37;2.00;;;22.80;51.20;;;;;;5412789;26;20494;-67
2024/04/24 05:33:04;;;;;;;2.73;2.30;;;22.80;51.30;;;;;;5412611;26;20964;-69
2024/04/24 05:35:30;;;;;;;4.43;2.57;;;22.80;51.30;;;;;;5412556;26;20764;-68
2024/04/24 05:37:55;;;;;;;5.00;2.60;;;22.80;51.30;;;;;;5412495;26;20240;-68
2024/04/24 05:40:21;;;;;;;2.57;2.37;;;22.80;51.30;;;;;;5412573;26;20229;-67
2024/04/24 05:42:47;;;;;;;2.50;2.10;;;22.80;51.30;;;;;;5412403;26;20228;-69
2024/04/24 05:45:12;;;;;;;3.37;2.70;;;22.80;51.30;;;;;;5412624;26;20578;-67
2024/04/24 05:47:38;;;;;;;2.77;2.23;;;22.90;51.40;;;;;;5416083;26;20262;-68
2024/04/24 05:50:04;;;;;;;2.90;2.60;;;22.80;51.30;;;;;;5416028;26;20266;-69
2024/04/24 05:52:30;;;;;;;4.10;2.27;;;22.90;51.30;;;;;;5416145;26;21183;-69
2024/04/24 05:54:55;;;;;;;3.40;2.20;;;22.90;51.40;;;;;;5416232;26;20819;-68
2024/04/24 05:57:23;;;;;;;2.60;2.37;;;22.90;51.30;;;;;;5416219;26;20240;-68
2024/04/24 05:59:49;;;;;;;4.10;2.60;;;22.80;51.20;;;;;;5415989;26;20233;-68
2024/04/24 06:02:15;;;;;;;4.23;2.47;;;22.90;51.30;;;;;;5415798;26;20502;-68
2024/04/24 06:04:40;;;;;;;3.87;2.20;;;22.90;51.30;;;;;;5415786;26;20513;-68
2024/04/24 06:07:06;;;;;;;2.40;1.73;;;22.90;51.30;;;;;;5384533;26;20601;-67
2024/04/24 06:09:32;;;;;;;3.40;2.27;;;22.80;51.20;;;;;;5415856;26;20262;-67
2024/04/24 06:11:57;;;;;;;2.90;2.00;;;22.90;51.30;;;;;;5415740;26;20220;-68
2024/04/24 06:14:23;;;;;;;3.47;3.17;;;22.90;51.30;;;;;;5415696;26;20263;-68
2024/04/24 06:16:48;;;;;;;4.03;2.30;;;22.90;51.30;;;;;;5415839;26;20220;-69
2024/04/24 06:19:14;;;;;;;3.80;2.43;;;22.90;51.30;;;;;;5415718;26;20337;-68
2024/04/24 06:21:40;;;;;;;2.50;2.20;;;22.90;51.30;;;;;;5415837;26;20228;-69
2024/04/24 06:24:06;;;;;;;5.20;4.00;;;22.90;51.30;;;;;;5415675;26;20398;-68
2024/04/24 06:26:31;;;;;;;2.70;2.50;;;22.90;51.30;;;;;;5415927;26;20645;-69
2024/04/24 06:28:57;;;;;;;2.50;1.93;;;22.90;51.30;;;;;;5415757;26;20753;-68
2024/04/24 06:31:22;;;;;;;2.40;2.13;;;22.90;51.30;;;;;;5415840;26;20228;-67
2024/04/24 06:33:48;;;;;;;2.60;2.40;;;22.90;51.30;;;;;;5415765;26;20228;-68
2024/04/24 06:36:14;;;;;;;2.63;1.80;;;22.90;51.30;;;;;;5415616;26;20259;-68
2024/04/24 06:38:39;;;;;;;2.60;2.10;;;22.90;51.30;;;;;;5415424;26;20339;-66
2024/04/24 06:41:05;;;;;;;3.03;2.30;;;22.90;51.30;;;;;;5415483;26;20758;-68
2024/04/24 06:43:31;;;;;;;2.60;2.20;;;22.90;51.30;;;;;;5415669;26;20270;-70
2024/04/24 06:45:56;;;;;;;2.70;1.93;;;22.90;51.30;;;;;;5415445;26;20224;-67
2024/04/24 06:48:22;;;;;;;2.87;2.00;;;22.90;51.30;;;;;;5415190;26;20259;-67
2024/04/24 06:50:48;;;;;;;3.73;2.10;;;22.90;51.30;;;;;;5415421;26;20223;-66
2024/04/24 06:53:13;;;;;;;3.33;2.40;;;22.90;51.30;;;;;;5415230;26;20688;-67
2024/04/24 06:55:43;;;;;;;3.20;2.60;;;22.90;51.30;;;;;;5415362;26;20703;-67
2024/04/24 06:58:09;;;;;;;2.43;1.90;;;22.90;51.30;;;;;;5414372;26;20571;-66
2024/04/24 07:00:35;;;;;;;3.03;2.13;;;22.90;51.30;;;;;;5415182;26;20585;-68
2024/04/24 07:03:00;;;;;;;4.40;2.40;;;22.90;51.30;;;;;;5415061;26;20224;-68
2024/04/24 07:05:26;;;;;;;2.50;2.00;;;22.90;51.30;;;;;;5415197;26;20827;-67
2024/04/24 07:07:51;;;;;;;2.70;2.20;;;22.90;51.30;;;;;;5415129;26;20270;-68
2024/04/24 07:10:17;;;;;;;3.00;2.20;;;22.90;51.30;;;;;;5415096;26;20216;-68
2024/04/24 07:12:44;;;;;;;4.00;2.13;;;22.90;51.30;;;;;;5415094;26;20270;-67
2024/04/24 07:15:09;;;;;;;5.20;2.37;;;22.90;51.30;;;;;;5415212;26;20597;-68
2024/04/24 07:17:35;;;;;;;3.50;2.77;;;22.90;51.30;;;;;;5415082;26;20513;-67
2024/04/24 07:20:00;;;;;;;2.87;2.10;;;22.90;51.30;;;;;;5414979;26;20220;-66
2024/04/24 07:22:26;;;;;;;3.07;2.43;;;22.90;51.30;;;;;;5415096;26;20224;-68
2024/04/24 07:24:51;;;;;;;4.53;2.30;;;22.90;51.30;;;;;;5415018;26;20217;-66
2024/04/24 07:27:17;;;;;;;3.50;2.20;;;22.90;51.30;;;;;;5415179;26;20244;-67
2024/04/24 07:29:42;;;;;;;2.50;1.90;;;22.90;51.30;;;;;;5414951;26;20267;-68
2024/04/24 07:32:08;;;;;;;4.30;1.87;;;22.90;51.30;;;;;;5415041;26;20217;-68
2024/04/24 07:34:34;;;;;;;5.60;2.27;;;22.90;51.50;;;;;;5414914;26;20657;-67
2024/04/24 07:36:59;;;;;;;3.40;2.00;;;22.90;51.30;;;;;;5383581;26;20240;-68
2024/04/24 07:39:25;;;;;;;3.50;2.80;;;22.90;51.30;;;;;;5414708;26;20768;-66
2024/04/24 07:41:50;;;;;;;5.50;2.80;;;22.90;51.30;;;;;;5414787;26;20220;-66
2024/04/24 07:44:16;;;;;;;3.40;2.40;;;22.90;51.30;;;;;;5414818;26;20259;-68
2024/04/24 07:46:42;;;;;;;2.40;2.07;;;22.90;51.30;;;;;;5414708;26;20232;-69
2024/04/24 07:49:07;;;;;;;3.83;1.80;;;22.90;51.30;;;;;;5414442;26;20240;-68
2024/04/24 07:51:33;;;;;;;3.70;2.27;;;22.90;51.30;;;;;;5414609;26;20358;-68
2024/04/24 07:53:58;;;;;;;3.03;2.03;;;22.90;51.30;;;;;;5414776;26;20297;-67
2024/04/24 07:56:24;;;;;;;5.17;2.27;;;22.90;51.30;;;;;;5383458;26;20220;-69
2024/04/24 07:58:49;;;;;;;4.00;2.90;;;22.90;51.30;;;;;;5414565;26;20229;-67
2024/04/24 08:01:15;;;;;;;3.40;2.23;;;22.90;51.30;;;;;;5414555;26;20320;-67
2024/04/24 08:03:41;;;;;;;5.93;2.37;;;22.90;51.30;;;;;;5383218;26;20313;-67
2024/04/24 08:06:07;;;;;;;3.80;2.10;;;22.90;51.30;;;;;;5414645;26;20458;-68
2024/04/24 08:08:39;;;;;;;3.17;2.40;;;22.90;51.30;;;;;;5413717;26;20282;-68
2024/04/24 08:11:05;;;;;;;3.60;2.30;;;22.90;51.30;;;;;;5413855;26;20442;-68
2024/04/24 08:13:30;;;;;;;2.63;2.27;;;22.90;51.90;;;;;;5414148;26;20572;-68
2024/04/24 08:15:56;;;;;;;3.70;2.50;;;22.90;51.30;;;;;;5414493;26;20228;-69
2024/04/24 08:18:22;;;;;;;4.73;3.20;;;22.90;51.30;;;;;;5383084;26;20267;-68
2024/04/24 08:20:47;;;;;;;3.10;2.03;;;22.90;51.30;;;;;;5414369;26;20271;-68
2024/04/24 08:23:13;;;;;;;4.77;2.47;;;22.90;51.30;;;;;;5414280;26;20217;-67
2024/04/24 08:25:38;;;;;;;4.03;2.13;;;23.00;51.40;;;;;;5414227;26;20267;-68
2024/04/24 08:28:04;;;;;;;2.53;1.97;;;22.90;51.80;;;;;;5414151;26;20229;-68
2024/04/24 08:30:30;;;;;;;3.70;2.10;;;23.00;51.40;;;;;;5414146;26;20266;-66
2024/04/24 08:32:56;;;;;;;2.73;2.53;;;23.00;51.40;;;;;;5414117;26;20269;-68
2024/04/24 08:35:21;;;;;;;4.07;2.53;;;23.00;51.40;;;;;;5414407;26;20450;-69
2024/04/24 08:37:47;;;;;;;2.60;2.20;;;22.90;51.30;;;;;;5413978;26;20228;-69
2024/04/24 08:40:14;;;;;;;3.67;2.23;;;23.00;51.40;;;;;;5441779;26;20270;-68
2024/04/24 08:42:39;;;;;;;4.40;2.83;;;22.90;51.30;;;;;;5449815;26;20215;-68
2024/04/24 08:45:06;;;;;;;4.30;2.50;;;22.90;51.30;;;;;;5449730;26;20812;-66
2024/04/24 08:47:32;;;;;;;3.27;1.97;;;23.00;51.40;;;;;;5449625;26;20265;-68
2024/04/24 08:49:59;;;;;;;5.80;2.80;;;23.00;51.40;;;;;;5449603;26;20981;-68
2024/04/24 08:52:27;;;;;;;2.97;2.13;;;23.00;51.30;;;;;;5417869;26;20501;-68
2024/04/24 08:54:57;;;;;;;4.23;2.10;;;23.00;51.30;;;;;;5417831;26;20563;-69
2024/04/24 08:57:25;;;;;;;3.80;2.10;;;23.00;51.30;;;;;;5449484;26;20561;-68
2024/04/24 08:59:55;;;;;;;4.50;2.80;;;23.00;51.30;;;;;;5449443;26;20915;-67
2024/04/24 09:02:26;;;;;;;2.90;2.20;;;23.00;51.40;;;;;;5449394;26;20436;-68
2024/04/24 09:04:54;;;;;;;4.70;2.43;;;23.00;51.40;;;;;;5449464;26;20437;-68
2024/04/24 09:07:21;;;;;;;5.33;2.50;;;23.00;51.40;;;;;;5449327;26;20946;-68
2024/04/24 09:09:47;;;;;;;6.07;2.67;;;23.00;51.40;;;;;;5449076;26;20472;-69
2024/04/24 09:12:15;;;;;;;3.00;2.20;;;23.00;51.40;;;;;;5449105;26;20788;-67
2024/04/24 09:14:40;;;;;;;2.67;2.17;;;23.00;51.40;;;;;;5448963;26;20433;-69
2024/04/24 09:17:06;;;;;;;3.20;1.90;;;23.00;51.40;;;;;;5449270;26;20849;-69
2024/04/24 09:19:32;;;;;;;3.30;2.30;;;23.00;51.40;;;;;;5449078;26;20340;-68
2024/04/24 09:21:59;;;;;;;3.43;2.30;;;23.00;51.40;;;;;;5451846;26;20219;-67
2024/04/24 09:24:25;;;;;;;5.60;2.13;;;23.00;51.40;;;;;;5452641;26;20602;-68
2024/04/24 09:26:50;;;;;;;3.50;2.67;;;23.00;51.40;;;;;;5452699;26;20774;-67
2024/04/24 09:29:16;;;;;;;3.80;2.13;;;23.00;51.40;;;;;;5452479;26;20227;-68
2024/04/24 09:31:42;;;;;;;3.23;2.03;;;23.00;51.40;;;;;;5452562;26;20215;-68
2024/04/24 09:34:09;;;;;;;3.00;2.10;;;23.00;51.40;;;;;;5452414;26;21018;-67
2024/04/24 09:36:37;;;;;;;3.87;2.40;;;23.00;51.40;;;;;;5452279;26;20215;-68
2024/04/24 09:39:30;;;;;;;5.40;2.23;;;23.00;51.40;;;;;;5452342;26;20517;-67
2024/04/24 09:41:56;;;;;;;4.40;2.60;;;23.00;51.40;;;;;;5448351;26;20889;-68
2024/04/24 09:44:27;;;;;;;3.57;2.53;;;23.00;51.40;;;;;;5452106;26;20441;-65
2024/04/24 09:46:54;;;;;;;2.90;1.93;;;23.00;51.40;;;;;;5452304;26;20215;-68
2024/04/24 09:49:23;;;;;;;5.73;2.00;;;23.00;51.40;;;;;;5452112;26;20456;-69
2024/04/24 09:51:50;;;;;;;4.00;2.33;;;23.00;51.40;;;;;;5452215;26;20772;-68
2024/04/24 09:54:17;;;;;;;3.13;2.10;;;23.00;51.40;;;;;;5452074;26;20448;-68
2024/04/24 09:56:46;;;;;;;3.37;2.40;;;23.00;51.40;;;;;;5451961;26;20465;-68
2024/04/24 09:59:13;;;;;;;4.00;2.50;;;23.00;51.40;;;;;;5451938;26;20464;-68
2024/04/24 10:01:46;;;;;;;2.60;2.10;;;23.00;51.40;;;;;;5451845;26;20449;-68
2024/04/24 10:04:14;;;;;;;2.60;2.27;;;23.00;51.40;;;;;;5451824;26;20441;-68
2024/04/24 10:06:43;;;;;;;3.07;1.97;;;23.00;51.40;;;;;;5452001;26;20558;-68
2024/04/24 10:09:11;;;;;;;3.37;2.30;;;23.00;51.40;;;;;;5451788;26;20456;-69
2024/04/24 10:11:48;;;;;;;2.40;1.77;;;23.00;51.50;;;;;;5451775;26;20496;-68
2024/04/24 10:14:18;;;;;;;2.53;1.87;;;23.00;51.40;;;;;;5451585;26;20456;-68
2024/04/24 10:16:45;;;;;;;3.90;2.20;;;23.00;51.40;;;;;;5451607;26;20506;-68
2024/04/24 10:19:14;;;;;;;3.23;2.37;;;23.00;51.40;;;;;;5451648;26;21005;-69
2024/04/24 10:21:40;;;;;;;2.63;1.90;;;23.00;51.40;;;;;;5451465;26;20536;-69
2024/04/24 10:24:06;;;;;;;2.80;1.80;;;23.00;51.40;;;;;;5451347;26;20488;-68
2024/04/24 10:26:32;;;;;;;3.50;2.37;;;23.10;51.50;;;;;;5451663;26;20444;-68
2024/04/24 10:29:00;;;;;;;3.03;2.00;;;23.00;51.40;;;;;;5451399;26;20502;-68
2024/04/24 10:31:26;;;;;;;2.47;1.87;;;23.10;51.50;;;;;;5450993;26;20452;-68
2024/04/24 10:33:53;;;;;;;3.63;2.13;;;23.10;52.10;;;;;;5450277;26;20987;-67
2024/04/24 10:36:18;;;;;;;3.07;1.70;;;23.00;51.40;;;;;;5451315;26;20501;-69
2024/04/24 10:38:45;;;;;;;3.30;1.80;;;23.00;51.40;;;;;;5451355;26;20997;-67
2024/04/24 10:41:11;;;;;;;3.60;2.27;;;23.00;51.40;;;;;;5451160;26;20356;-69
2024/04/24 10:43:39;;;;;;;2.63;2.03;;;23.00;51.40;;;;;;5451153;26;20452;-68
2024/04/24 10:46:05;;;;;;;3.07;2.23;;;23.00;51.40;;;;;;5451391;26;20215;-69
2024/04/24 10:48:57;;;;;;;2.00;1.70;;;23.00;51.40;;;;;;5451259;26;20529;-69
2024/04/24 10:51:31;;;;;;;2.30;1.73;;;23.00;51.40;;;;;;5451421;26;20443;-67
2024/04/24 10:54:15;;;;;;;3.00;2.03;;;23.00;51.50;;;;;;5419244;26;20580;-69
2024/04/24 10:56:41;;;;;;;3.50;1.90;;;23.00;51.50;;;;;;5449413;26;20457;-69
2024/04/24 10:59:07;;;;;;;2.80;2.23;;;23.00;51.50;;;;;;5450963;26;20543;-68
2024/04/24 11:01:33;;;;;;;3.90;2.20;;;23.00;51.50;;;;;;5453367;26;20465;-68
2024/04/24 11:04:03;;;;;;;3.80;2.10;;;23.00;51.50;;;;;;5441044;26;20272;-67
2024/04/24 11:06:29;;;;;;;3.43;2.10;;;23.00;51.50;;;;;;5450998;26;20440;-69
2024/04/24 11:08:56;;;;;;;2.67;1.90;;;23.00;51.50;;;;;;5450815;26;21046;-69
2024/04/24 11:11:24;;;;;;;4.70;1.87;;;23.00;51.50;;;;;;5447622;26;20456;-68
2024/04/24 11:14:03;;;;;;;2.00;1.77;;;23.00;51.50;;;;;;5435730;26;20549;-67
2024/04/24 11:16:30;;;;;;;2.20;1.97;;;23.00;51.40;;;;;;5450122;26;21057;-68
2024/04/24 11:18:56;;;;;;;3.60;2.70;;;23.00;51.50;;;;;;5444794;26;20457;-67
2024/04/24 11:21:26;;;;;;;4.47;2.90;;;23.00;51.50;;;;;;5447880;26;20509;-68
2024/04/24 11:23:59;;;;;;;5.00;3.27;;;23.10;51.50;;;;;;5450601;26;20273;-69
2024/04/24 11:26:34;;;;;;;7.47;4.20;;;23.10;51.50;;;;;;5450659;26;20509;-68
2024/04/24 11:29:05;;;;;;;6.03;3.90;;;23.10;51.50;;;;;;5450524;26;20986;-65
2024/04/24 11:31:44;;;;;;;6.07;4.30;;;23.00;51.50;;;;;;5450574;26;20832;-68
2024/04/24 11:34:10;;;;;;;6.77;4.80;;;23.00;51.50;;;;;;5450397;26;20440;-68
2024/04/24 11:36:41;;;;;;;7.10;4.87;;;23.00;51.50;;;;;;5419062;26;20502;-68
2024/04/24 11:39:08;;;;;;;9.90;6.13;;;23.10;51.50;;;;;;5414409;26;20466;-68
2024/04/24 11:41:36;;;;;;;10.47;6.47;;;23.10;51.50;;;;;;5414133;26;20446;-69
2024/04/24 11:44:06;;;;;;;10.60;6.47;;;23.10;51.50;;;;;;5431013;26;20952;-69
2024/04/24 11:46:35;;;;;;;11.50;7.30;;;23.10;51.50;;;;;;5450058;26;20441;-67
2024/04/24 11:49:04;;;;;;;12.73;7.40;;;23.10;51.60;;;;;;5414642;26;20525;-68
2024/04/24 11:51:32;;;;;;;10.40;7.63;;;23.10;51.50;;;;;;5414327;26;20497;-68
2024/04/24 11:53:59;;;;;;;14.57;7.97;;;23.10;51.60;;;;;;5414091;26;20523;-68
2024/04/24 11:56:25;;;;;;;11.53;7.50;;;23.10;51.60;;;;;;5415561;26;20564;-68
2024/04/24 11:58:51;;;;;;;15.23;9.37;;;23.10;51.60;;;;;;5444858;26;20466;-68
2024/04/24 12:01:17;;;;;;;15.60;9.23;;;23.10;51.60;;;;;;5425417;26;20272;-68
2024/04/24 12:03:43;;;;;;;14.40;8.60;;;23.10;51.60;;;;;;5414032;26;20255;-68
2024/04/24 12:06:09;;;;;;;12.90;8.37;;;23.10;51.60;;;;;;5413816;26;20568;-69
2024/04/24 12:08:35;;;;;;;16.37;10.23;;;23.10;51.60;;;;;;5414122;26;21000;-68
2024/04/24 12:11:03;;;;;;;12.33;8.33;;;23.10;51.60;;;;;;5432009;26;20457;-67
2024/04/24 12:13:32;;;;;;;15.70;8.53;;;23.10;51.60;;;;;;5449615;26;20539;-69
2024/04/24 12:16:02;;;;;;;16.10;8.60;;;23.10;51.60;;;;;;5449583;26;20437;-69
2024/04/24 12:18:29;;;;;;;12.90;8.23;;;23.10;51.60;;;;;;5449426;26;21058;-68
2024/04/24 12:20:55;;;;;;;13.47;8.33;;;23.10;51.60;;;;;;5432744;26;21125;-68
2024/04/24 12:23:25;;;;;;;14.73;9.43;;;23.10;51.60;;;;;;5413721;26;20450;-68
2024/04/24 12:25:55;;;;;;;15.63;10.63;;;23.10;51.60;;;;;;5413612;26;20544;-67
2024/04/24 12:28:21;;;;;;;19.23;9.93;;;23.10;51.60;;;;;;5413423;26;20540;-69
2024/04/24 12:30:48;;;;;;;14.60;9.07;;;23.10;51.60;;;;;;5427376;26;20453;-67
2024/04/24 12:33:13;;;;;;;15.33;8.97;;;23.10;51.70;;;;;;5446610;26;20508;-69
2024/04/24 12:35:39;;;;;;;16.67;10.77;;;23.10;51.60;;;;;;5449401;26;20440;-68
2024/04/24 12:38:06;;;;;;;14.17;8.60;;;23.10;51.70;;;;;;5449428;26;20274;-68
2024/04/24 12:40:31;;;;;;;16.33;8.60;;;23.10;51.60;;;;;;5449534;26;20740;-68
2024/04/24 12:42:57;;;;;;;11.30;8.87;;;23.10;51.70;;;;;;5434144;26;20454;-68
2024/04/24 12:45:23;;;;;;;14.50;9.07;;;23.10;51.70;;;;;;5413413;26;20929;-68
2024/04/24 12:47:49;;;;;;;14.40;10.33;;;23.10;51.70;;;;;;5413301;26;20305;-68